createdAt,value
2018-07-12T00:01:16.960Z,15.13
2018-07-12T00:03:44.071Z,15.11
2018-07-12T00:06:11.166Z,15.15
2018-07-12T00:08:38.386Z,15.19
2018-07-12T00:11:05.504Z,15.11
2018-07-12T00:13:32.633Z,15.06
2018-07-12T00:15:59.750Z,15.00
2018-07-12T00:18:26.850Z,14.99
2018-07-12T00:20:53.960Z,15.02
2018-07-12T00:23:21.070Z,14.94
2018-07-12T00:25:48.167Z,14.94
2018-07-12T00:28:15.347Z,14.89
2018-07-12T00:30:42.453Z,14.88
2018-07-12T00:33:09.558Z,14.85
2018-07-12T00:35:36.663Z,14.88
2018-07-12T00:38:03.788Z,15.01
2018-07-12T00:40:30.876Z,15.03
2018-07-12T00:42:57.980Z,15.01
2018-07-12T00:45:25.105Z,14.95
2018-07-12T00:47:52.198Z,14.96
2018-07-12T00:50:19.300Z,14.95
2018-07-12T00:52:46.393Z,14.84
2018-07-12T00:55:13.497Z,14.86
2018-07-12T00:57:40.594Z,14.79
2018-07-12T01:00:07.719Z,14.81
2018-07-12T01:02:34.844Z,14.79
2018-07-12T01:05:01.956Z,14.78
2018-07-12T01:07:29.057Z,14.70
2018-07-12T01:09:56.159Z,14.63
2018-07-12T01:12:23.286Z,14.56
2018-07-12T01:14:50.389Z,14.53
2018-07-12T01:17:17.483Z,14.54
2018-07-12T01:19:44.594Z,14.47
2018-07-12T01:22:11.684Z,14.46
2018-07-12T01:24:38.804Z,14.45
2018-07-12T01:27:05.890Z,14.47
2018-07-12T01:29:32.974Z,14.49
2018-07-12T01:32:00.061Z,14.54
2018-07-12T01:34:27.192Z,14.53
2018-07-12T01:36:54.282Z,14.48
2018-07-12T01:39:21.399Z,14.48
2018-07-12T01:41:48.517Z,14.47
2018-07-12T01:44:15.607Z,14.43
2018-07-12T01:46:42.732Z,14.42
2018-07-12T01:49:09.832Z,14.36
2018-07-12T01:51:36.930Z,14.36
2018-07-12T01:54:04.019Z,14.32
2018-07-12T01:56:31.124Z,14.29
2018-07-12T01:58:58.252Z,14.27
2018-07-12T02:01:25.373Z,14.24
2018-07-12T02:03:52.465Z,14.23
2018-07-12T02:06:19.575Z,14.25
2018-07-12T02:08:46.681Z,14.24
2018-07-12T02:11:13.792Z,14.22
2018-07-12T02:13:40.905Z,14.21
2018-07-12T02:16:08.018Z,14.18
2018-07-12T02:18:35.106Z,14.17
2018-07-12T02:21:02.197Z,14.18
2018-07-12T02:23:29.329Z,14.12
2018-07-12T02:25:56.415Z,14.12
2018-07-12T02:28:23.519Z,14.09
2018-07-12T02:30:50.621Z,14.11
2018-07-12T02:33:17.730Z,14.13
2018-07-12T02:35:44.817Z,14.11
2018-07-12T02:38:11.922Z,14.05
2018-07-12T02:40:39.012Z,14.01
2018-07-12T02:43:06.115Z,13.97
2018-07-12T02:45:33.232Z,13.91
2018-07-12T02:48:00.351Z,13.88
2018-07-12T02:50:27.890Z,13.87
2018-07-12T02:52:55.073Z,13.88
2018-07-12T02:55:22.170Z,13.92
2018-07-12T02:57:49.252Z,13.95
2018-07-12T03:00:16.360Z,13.98
2018-07-12T03:02:43.831Z,13.99
2018-07-12T03:05:11.038Z,13.99
2018-07-12T03:07:38.146Z,14.00
2018-07-12T03:10:05.231Z,14.05
2018-07-12T03:12:32.350Z,14.03
2018-07-12T03:14:59.444Z,14.02
2018-07-12T03:17:26.568Z,14.02
2018-07-12T03:19:53.660Z,14.04
2018-07-12T03:22:20.772Z,14.02
2018-07-12T03:24:47.916Z,14.00
2018-07-12T03:27:15.028Z,13.97
2018-07-12T03:29:42.856Z,14.03
2018-07-12T03:32:09.946Z,14.05
2018-07-12T03:34:37.056Z,14.08
2018-07-12T03:37:04.148Z,14.11
2018-07-12T03:39:31.242Z,14.16
2018-07-12T03:41:58.348Z,14.20
2018-07-12T03:44:25.454Z,14.27
2018-07-12T03:46:52.549Z,14.31
2018-07-12T03:49:19.672Z,14.36
2018-07-12T03:51:46.773Z,14.46
2018-07-12T03:54:13.879Z,14.50
2018-07-12T03:56:40.970Z,14.58
2018-07-12T03:59:08.092Z,14.67
2018-07-12T04:01:35.196Z,14.77
2018-07-12T04:04:02.305Z,14.86
2018-07-12T04:06:29.423Z,15.00
2018-07-12T04:08:56.519Z,15.13
2018-07-12T04:11:23.623Z,15.26
2018-07-12T04:13:50.720Z,15.43
2018-07-12T04:16:17.805Z,15.45
2018-07-12T04:18:44.937Z,15.59
2018-07-12T04:21:12.042Z,15.72
2018-07-12T04:23:39.146Z,15.71
2018-07-12T04:26:06.262Z,15.69
2018-07-12T04:28:33.369Z,15.84
2018-07-12T04:31:00.524Z,15.74
2018-07-12T04:33:27.627Z,15.63
2018-07-12T04:35:54.759Z,15.64
2018-07-12T04:38:21.864Z,15.69
2018-07-12T04:40:49.005Z,15.77
2018-07-12T04:43:16.100Z,15.65
2018-07-12T04:45:43.208Z,15.72
2018-07-12T04:48:10.470Z,15.86
2018-07-12T04:50:38.151Z,15.74
2018-07-12T04:53:05.248Z,15.84
2018-07-12T04:55:32.422Z,15.81
2018-07-12T04:57:59.526Z,15.78
2018-07-12T05:00:26.659Z,15.83
2018-07-12T05:02:53.744Z,15.98
2018-07-12T05:05:20.849Z,15.97
2018-07-12T05:07:47.964Z,15.91
2018-07-12T05:10:15.084Z,15.95
2018-07-12T05:12:42.220Z,16.03
2018-07-12T05:15:09.341Z,16.08
2018-07-12T05:17:36.459Z,16.11
2018-07-12T05:20:03.617Z,16.13
2018-07-12T05:22:30.711Z,16.20
2018-07-12T05:24:57.814Z,16.27
2018-07-12T05:27:24.964Z,16.53
2018-07-12T05:29:52.068Z,16.73
2018-07-12T05:32:19.174Z,16.70
2018-07-12T05:34:47.422Z,16.87
2018-07-12T05:37:15.515Z,16.98
2018-07-12T05:39:43.606Z,17.19
2018-07-12T05:42:11.734Z,17.16
2018-07-12T05:44:39.863Z,17.25
2018-07-12T05:47:08.001Z,17.45
2018-07-12T05:49:36.130Z,17.95
2018-07-12T05:52:04.279Z,18.22
2018-07-12T05:54:32.417Z,18.45
2018-07-12T05:57:00.536Z,18.44
2018-07-12T05:59:28.672Z,18.58
2018-07-12T06:02:08.229Z,19.22
2018-07-12T06:04:36.348Z,19.68
2018-07-12T06:07:04.455Z,19.57
2018-07-12T06:09:32.598Z,19.49
2018-07-12T06:12:00.714Z,19.24
2018-07-12T06:14:28.816Z,19.10
2018-07-12T06:16:56.941Z,18.87
2018-07-12T06:19:25.072Z,18.74
2018-07-12T06:21:53.188Z,18.84
2018-07-12T06:24:21.296Z,19.53
2018-07-12T06:26:49.472Z,21.29
2018-07-12T06:29:17.586Z,22.85
2018-07-12T06:31:45.700Z,23.11
2018-07-12T06:34:13.832Z,21.89
2018-07-12T06:36:41.962Z,20.79
2018-07-12T06:39:11.167Z,21.73
2018-07-12T06:41:39.329Z,22.59
2018-07-12T06:44:07.461Z,23.56
2018-07-12T06:46:35.555Z,23.67
2018-07-12T06:49:03.693Z,23.86
2018-07-12T06:51:32.017Z,24.73
2018-07-12T06:54:00.171Z,24.75
2018-07-12T06:56:28.342Z,23.95
2018-07-12T06:58:56.423Z,24.32
2018-07-12T07:01:24.551Z,26.12
2018-07-12T07:03:52.658Z,26.69
2018-07-12T07:06:20.798Z,26.14
2018-07-12T07:08:48.908Z,26.82
2018-07-12T07:11:17.042Z,26.86
2018-07-12T07:13:45.190Z,26.95
2018-07-12T07:16:13.323Z,27.71
2018-07-12T07:18:41.452Z,26.25
2018-07-12T07:21:09.592Z,27.20
2018-07-12T07:23:37.772Z,26.99
2018-07-12T07:26:05.912Z,27.94
2018-07-12T07:28:33.986Z,26.66
2018-07-12T07:31:02.076Z,27.90
2018-07-12T07:33:30.150Z,28.35
2018-07-12T07:35:58.291Z,28.09
2018-07-12T07:38:26.371Z,28.72
2018-07-12T07:40:54.542Z,28.98
2018-07-12T07:43:22.617Z,28.29
2018-07-12T07:45:50.708Z,28.82
2018-07-12T07:48:18.816Z,28.32
2018-07-12T07:50:46.933Z,28.26
2018-07-12T07:53:15.021Z,28.88
2018-07-12T07:55:43.115Z,29.38
2018-07-12T07:58:11.195Z,29.44
2018-07-12T08:00:39.288Z,29.21
2018-07-12T08:03:07.546Z,28.77
2018-07-12T08:05:35.629Z,27.60
2018-07-12T08:08:03.736Z,27.71
2018-07-12T08:10:31.817Z,28.32
2018-07-12T08:12:59.936Z,27.65
2018-07-12T08:15:28.008Z,26.43
2018-07-12T08:17:56.127Z,26.47
2018-07-12T08:20:24.261Z,26.31
2018-07-12T08:22:52.432Z,26.02
2018-07-12T08:25:20.602Z,25.91
2018-07-12T08:28:00.250Z,25.95
2018-07-12T08:30:28.338Z,26.56
2018-07-12T08:32:56.426Z,26.10
2018-07-12T08:35:24.524Z,26.49
2018-07-12T08:37:52.645Z,26.02
2018-07-12T08:40:20.787Z,26.28
2018-07-12T08:42:48.929Z,26.38
2018-07-12T08:45:17.193Z,26.21
2018-07-12T08:47:45.327Z,26.34
2018-07-12T08:50:13.505Z,26.00
2018-07-12T08:52:41.674Z,25.30
2018-07-12T08:55:09.847Z,25.79
2018-07-12T08:57:38.044Z,25.36
2018-07-12T09:00:06.219Z,25.28
2018-07-12T09:02:34.377Z,25.30
2018-07-12T09:05:02.491Z,26.61
2018-07-12T09:07:30.620Z,26.79
2018-07-12T09:09:58.804Z,27.15
2018-07-12T09:12:26.943Z,26.66
2018-07-12T09:14:55.089Z,27.32
2018-07-12T09:17:23.258Z,26.87
2018-07-12T09:19:51.419Z,26.63
2018-07-12T09:22:19.549Z,27.17
2018-07-12T09:24:47.672Z,26.17
2018-07-12T09:27:15.936Z,26.03
2018-07-12T09:29:44.653Z,25.50
2018-07-12T09:32:12.745Z,26.33
2018-07-12T09:34:40.869Z,26.81
2018-07-12T09:37:09.137Z,26.91
2018-07-12T09:39:37.159Z,26.44
2018-07-12T09:42:05.316Z,26.58
2018-07-12T09:44:33.485Z,26.07
2018-07-12T09:47:01.604Z,25.86
2018-07-12T09:49:29.711Z,25.95
2018-07-12T09:51:57.852Z,25.92
2018-07-12T09:54:25.943Z,25.44
2018-07-12T09:57:05.476Z,25.08
2018-07-12T09:59:33.604Z,25.31
2018-07-12T10:02:07.225Z,25.75
2018-07-12T10:04:35.326Z,25.74
2018-07-12T10:07:08.890Z,25.99
2018-07-12T10:09:43.469Z,25.89
2018-07-12T10:12:15.752Z,26.09
2018-07-12T10:14:49.203Z,26.53
2018-07-12T10:17:22.624Z,26.35
2018-07-12T10:19:50.766Z,26.19
2018-07-12T10:22:18.936Z,25.86
2018-07-12T10:24:47.001Z,25.63
2018-07-12T10:27:15.143Z,25.10
2018-07-12T10:29:43.356Z,25.14
2018-07-12T10:32:11.524Z,25.20
2018-07-12T10:34:39.719Z,25.20
2018-07-12T10:37:07.833Z,25.15
2018-07-12T10:39:35.950Z,25.55
2018-07-12T10:42:04.082Z,25.85
2018-07-12T10:44:32.208Z,25.96
2018-07-12T10:47:00.296Z,25.94
2018-07-12T10:49:28.396Z,25.76
2018-07-12T10:51:56.525Z,25.59
2018-07-12T10:54:24.656Z,25.44
2018-07-12T10:56:52.739Z,24.82
2018-07-12T10:59:20.846Z,24.74
2018-07-12T11:01:48.962Z,25.18
2018-07-12T11:04:17.083Z,25.71
2018-07-12T11:06:45.201Z,25.90
2018-07-12T11:09:13.482Z,26.13
2018-07-12T11:11:42.016Z,26.09
2018-07-12T11:14:11.245Z,25.72
2018-07-12T11:16:39.448Z,25.33
2018-07-12T11:19:07.869Z,25.02
2018-07-12T11:21:35.950Z,24.88
2018-07-12T11:24:04.086Z,24.97
2018-07-12T11:26:32.188Z,24.96
2018-07-12T11:29:00.294Z,24.90
2018-07-12T11:31:28.403Z,25.26
2018-07-12T11:33:56.566Z,25.69
2018-07-12T11:36:24.700Z,25.67
2018-07-12T11:38:52.829Z,25.56
2018-07-12T11:41:20.976Z,25.47
2018-07-12T11:43:49.060Z,25.67
2018-07-12T11:46:17.225Z,25.71
2018-07-12T11:48:45.827Z,25.73
2018-07-12T11:51:14.000Z,25.69
2018-07-12T11:53:42.126Z,25.44
2018-07-12T11:56:10.289Z,25.56
2018-07-12T11:58:38.415Z,25.81
2018-07-12T12:01:07.136Z,26.10
2018-07-12T12:03:35.280Z,26.32
2018-07-12T12:06:03.445Z,26.39
2018-07-12T12:08:31.588Z,26.04
2018-07-12T12:10:59.752Z,25.85
2018-07-12T12:13:27.853Z,25.47
2018-07-12T12:15:56.001Z,25.07
2018-07-12T12:18:24.179Z,25.01
2018-07-12T12:20:52.340Z,25.17
2018-07-12T12:23:20.472Z,25.27
2018-07-12T12:25:48.596Z,25.19
2018-07-12T12:28:16.762Z,25.55
2018-07-12T12:30:44.940Z,25.88
2018-07-12T12:33:13.076Z,26.20
2018-07-12T12:35:41.131Z,26.49
2018-07-12T12:38:09.227Z,26.50
2018-07-12T12:40:37.331Z,26.17
2018-07-12T12:43:05.485Z,25.61
2018-07-12T12:45:33.596Z,25.01
2018-07-12T12:48:01.735Z,24.86
2018-07-12T12:50:29.873Z,24.68
2018-07-12T12:52:58.014Z,24.62
2018-07-12T12:55:26.170Z,24.66
2018-07-12T12:57:54.330Z,24.66
2018-07-12T13:00:22.463Z,25.00
2018-07-12T13:02:50.555Z,25.35
2018-07-12T13:05:18.672Z,25.52
2018-07-12T13:07:46.781Z,25.62
2018-07-12T13:10:14.906Z,25.98
2018-07-12T13:12:43.045Z,26.26
2018-07-12T13:15:11.164Z,26.91
2018-07-12T13:17:39.258Z,26.82
2018-07-12T13:20:07.422Z,26.82
2018-07-12T13:22:35.561Z,26.80
2018-07-12T13:25:03.699Z,26.93
2018-07-12T13:27:31.792Z,27.02
2018-07-12T13:29:59.912Z,26.98
2018-07-12T13:32:28.020Z,27.08
2018-07-12T13:34:56.140Z,27.01
2018-07-12T13:37:24.236Z,27.43
2018-07-12T13:39:52.361Z,27.43
2018-07-12T13:42:20.449Z,26.78
2018-07-12T13:44:48.562Z,26.26
2018-07-12T13:47:16.677Z,25.75
2018-07-12T13:49:44.849Z,25.66
2018-07-12T13:52:12.969Z,25.56
2018-07-12T13:54:41.061Z,25.22
2018-07-12T13:57:09.192Z,25.10
2018-07-12T13:59:37.320Z,25.03
2018-07-12T14:02:05.507Z,25.27
2018-07-12T14:04:33.670Z,25.57
2018-07-12T14:07:01.783Z,25.86
2018-07-12T14:09:29.939Z,26.09
2018-07-12T14:11:58.021Z,26.10
2018-07-12T14:14:26.119Z,25.87
2018-07-12T14:16:54.829Z,25.59
2018-07-12T14:19:23.000Z,25.45
2018-07-12T14:21:51.156Z,25.36
2018-07-12T14:24:19.396Z,25.43
2018-07-12T14:26:47.541Z,25.46
2018-07-12T14:29:16.239Z,25.85
2018-07-12T14:31:44.417Z,26.00
2018-07-12T14:34:12.528Z,26.31
2018-07-12T14:36:40.671Z,26.60
2018-07-12T14:39:09.512Z,26.60
2018-07-12T14:41:37.620Z,26.44
2018-07-12T14:44:05.828Z,26.38
2018-07-12T14:46:34.042Z,26.50
2018-07-12T14:49:02.307Z,26.61
2018-07-12T14:51:30.412Z,26.53
2018-07-12T14:53:58.556Z,26.63
2018-07-12T14:56:26.676Z,26.67
2018-07-12T14:58:54.795Z,26.80
2018-07-12T15:01:22.897Z,26.24
2018-07-12T15:03:51.031Z,25.74
2018-07-12T15:06:19.232Z,25.61
2018-07-12T15:08:47.377Z,25.42
2018-07-12T15:11:15.464Z,25.08
2018-07-12T15:13:43.580Z,24.99
2018-07-12T15:16:11.697Z,24.61
2018-07-12T15:18:39.828Z,24.37
2018-07-12T15:21:07.959Z,24.23
2018-07-12T15:23:36.147Z,24.17
2018-07-12T15:26:04.355Z,24.34
2018-07-12T15:28:32.813Z,24.64
2018-07-12T15:31:00.929Z,24.99
2018-07-12T15:33:29.020Z,25.02
2018-07-12T15:35:57.185Z,25.04
2018-07-12T15:38:25.324Z,25.19
2018-07-12T15:40:53.465Z,25.16
2018-07-12T15:43:21.646Z,25.16
2018-07-12T15:45:49.794Z,25.03
2018-07-12T15:48:17.860Z,24.89
2018-07-12T15:50:46.060Z,24.72
2018-07-12T15:53:14.196Z,24.68
2018-07-12T15:55:42.988Z,24.51
2018-07-12T15:58:11.045Z,24.36
2018-07-12T16:00:39.141Z,24.21
2018-07-12T16:03:07.270Z,24.05
2018-07-12T16:05:35.397Z,23.90
2018-07-12T16:08:03.512Z,23.68
2018-07-12T16:10:31.648Z,23.52
2018-07-12T16:12:59.821Z,23.52
2018-07-12T16:15:27.978Z,23.40
2018-07-12T16:17:56.098Z,23.29
2018-07-12T16:20:24.206Z,23.20
2018-07-12T16:22:52.699Z,23.24
2018-07-12T16:25:20.856Z,23.16
2018-07-12T16:27:48.947Z,23.12
2018-07-12T16:30:17.028Z,23.02
2018-07-12T16:32:45.173Z,22.95
2018-07-12T16:35:13.336Z,22.83
2018-07-12T16:37:41.488Z,22.89
2018-07-12T16:40:09.630Z,22.88
2018-07-12T16:42:37.748Z,22.85
2018-07-12T16:45:06.539Z,22.80
2018-07-12T16:47:34.648Z,22.81
2018-07-12T16:50:02.723Z,22.90
2018-07-12T16:52:30.833Z,22.97
2018-07-12T16:54:58.963Z,22.96
2018-07-12T16:57:27.052Z,23.04
2018-07-12T16:59:55.147Z,23.18
2018-07-12T17:02:23.274Z,23.19
2018-07-12T17:04:51.450Z,23.23
2018-07-12T17:07:19.722Z,23.29
2018-07-12T17:09:47.823Z,23.25
2018-07-12T17:12:15.920Z,23.25
2018-07-12T17:14:43.980Z,23.40
2018-07-12T17:17:12.102Z,23.33
2018-07-12T17:19:40.964Z,23.37
2018-07-12T17:22:09.032Z,23.36
2018-07-12T17:24:37.120Z,23.40
2018-07-12T17:27:05.243Z,23.38
2018-07-12T17:29:33.372Z,23.42
2018-07-12T17:32:01.457Z,23.42
2018-07-12T17:34:29.685Z,23.45
2018-07-12T17:36:57.812Z,23.35
2018-07-12T17:39:25.977Z,23.43
2018-07-12T17:41:54.117Z,23.21
2018-07-12T17:44:22.397Z,23.18
2018-07-12T17:46:50.545Z,23.12
2018-07-12T17:49:18.637Z,23.07
2018-07-12T17:51:46.789Z,23.13
2018-07-12T17:54:14.977Z,23.07
2018-07-12T17:56:43.063Z,23.09
2018-07-12T17:59:11.133Z,23.04
2018-07-12T18:01:39.247Z,23.01
2018-07-12T18:04:07.356Z,22.93
2018-07-12T18:06:35.456Z,22.85
2018-07-12T18:09:04.836Z,22.74
2018-07-12T18:11:33.014Z,22.72
2018-07-12T18:14:01.177Z,22.69
2018-07-12T18:16:29.292Z,22.73
2018-07-12T18:18:57.406Z,22.68
2018-07-12T18:21:25.503Z,22.52
2018-07-12T18:23:53.629Z,22.41
2018-07-12T18:26:21.761Z,22.30
2018-07-12T18:28:49.876Z,22.24
2018-07-12T18:31:17.944Z,22.19
2018-07-12T18:33:46.081Z,22.10
2018-07-12T18:36:14.196Z,21.99
2018-07-12T18:38:42.338Z,21.92
2018-07-12T18:41:10.498Z,21.86
2018-07-12T18:43:38.747Z,21.81
2018-07-12T18:46:06.820Z,21.60
2018-07-12T18:48:34.934Z,21.52
2018-07-12T18:51:03.034Z,21.41
2018-07-12T18:53:31.224Z,21.40
2018-07-12T18:55:59.438Z,21.36
2018-07-12T18:58:27.401Z,21.30
2018-07-12T19:00:55.754Z,21.23
2018-07-12T19:03:23.871Z,21.17
2018-07-12T19:05:52.001Z,21.03
2018-07-12T19:08:20.191Z,21.03
2018-07-12T19:10:48.380Z,20.88
2018-07-12T19:13:16.560Z,20.73
2018-07-12T19:15:44.678Z,20.71
2018-07-12T19:18:12.797Z,20.57
2018-07-12T19:20:40.928Z,20.55
2018-07-12T19:23:09.031Z,20.51
2018-07-12T19:25:37.203Z,20.44
2018-07-12T19:28:05.300Z,20.22
2018-07-12T19:30:33.393Z,20.14
2018-07-12T19:33:01.490Z,19.97
2018-07-12T19:35:29.610Z,19.93
2018-07-12T19:37:57.745Z,19.82
2018-07-12T19:40:25.874Z,19.72
2018-07-12T19:42:54.017Z,19.64
2018-07-12T19:45:22.162Z,19.53
2018-07-12T19:47:50.461Z,19.54
2018-07-12T19:50:18.917Z,19.36
2018-07-12T19:52:47.087Z,19.32
2018-07-12T19:55:15.178Z,19.21
2018-07-12T19:57:43.338Z,19.13
2018-07-12T20:00:11.453Z,19.08
2018-07-12T20:02:39.569Z,19.01
2018-07-12T20:05:07.706Z,18.89
2018-07-12T20:07:35.814Z,18.73
2018-07-12T20:10:03.927Z,18.66
2018-07-12T20:12:32.056Z,18.58
2018-07-12T20:15:00.173Z,18.46
2018-07-12T20:17:28.275Z,18.44
2018-07-12T20:19:56.371Z,18.37
2018-07-12T20:22:24.556Z,18.24
2018-07-12T20:24:52.692Z,18.18
2018-07-12T20:27:20.834Z,18.10
2018-07-12T20:29:48.939Z,18.07
2018-07-12T20:32:17.081Z,17.98
2018-07-12T20:34:45.240Z,17.84
2018-07-12T20:37:13.325Z,17.86
2018-07-12T20:39:41.399Z,17.78
2018-07-12T20:42:09.498Z,17.76
2018-07-12T20:44:37.623Z,17.73
2018-07-12T20:47:05.748Z,17.68
2018-07-12T20:49:33.901Z,17.64
2018-07-12T20:52:02.029Z,17.58
2018-07-12T20:54:30.117Z,17.51
2018-07-12T20:56:58.196Z,17.59
2018-07-12T20:59:26.319Z,17.50
2018-07-12T21:01:54.497Z,17.43
2018-07-12T21:04:22.588Z,17.32
2018-07-12T21:06:50.965Z,17.22
2018-07-12T21:09:19.056Z,17.19
2018-07-12T21:11:47.205Z,17.07
2018-07-12T21:14:15.340Z,16.97
2018-07-12T21:16:43.432Z,17.03
2018-07-12T21:19:11.549Z,16.93
2018-07-12T21:21:39.695Z,16.90
2018-07-12T21:24:07.888Z,16.82
2018-07-12T21:26:36.031Z,16.81
2018-07-12T21:29:04.132Z,16.74
2018-07-12T21:31:32.309Z,16.72
2018-07-12T21:34:00.439Z,16.72
2018-07-12T21:36:28.592Z,16.70
2018-07-12T21:38:56.741Z,16.66
2018-07-12T21:41:24.908Z,16.70
2018-07-12T21:43:53.053Z,16.70
2018-07-12T21:46:21.198Z,16.64
2018-07-12T21:48:50.066Z,16.53
2018-07-12T21:51:18.233Z,16.42
2018-07-12T21:53:46.344Z,16.36
2018-07-12T21:56:14.478Z,16.32
2018-07-12T21:58:42.616Z,16.31
2018-07-12T22:01:10.758Z,16.28
2018-07-12T22:03:38.881Z,16.18
2018-07-12T22:06:07.034Z,16.06
2018-07-12T22:08:35.209Z,16.00
2018-07-12T22:11:04.591Z,16.01
2018-07-12T22:13:33.907Z,16.01
2018-07-12T22:16:02.048Z,15.99
2018-07-12T22:18:30.239Z,15.96
2018-07-12T22:20:58.409Z,15.94
2018-07-12T22:23:26.716Z,15.85
2018-07-12T22:25:54.879Z,15.87
2018-07-12T22:28:23.040Z,15.81
2018-07-12T22:30:51.206Z,15.74
2018-07-12T22:33:19.388Z,15.86
2018-07-12T22:35:47.564Z,15.85
2018-07-12T22:38:15.722Z,15.97
2018-07-12T22:40:43.831Z,16.05
2018-07-12T22:43:11.968Z,15.94
2018-07-12T22:45:40.056Z,15.98
2018-07-12T22:48:08.254Z,15.96
2018-07-12T22:50:36.306Z,15.98
2018-07-12T22:53:04.468Z,15.95
2018-07-12T22:55:32.623Z,15.83
2018-07-12T22:58:00.766Z,15.93
2018-07-12T23:00:28.902Z,15.95
2018-07-12T23:02:57.072Z,16.02
2018-07-12T23:05:25.185Z,16.07
2018-07-12T23:07:53.443Z,16.00
2018-07-12T23:10:21.568Z,15.99
2018-07-12T23:12:49.696Z,16.00
2018-07-12T23:15:17.842Z,15.94
2018-07-12T23:17:45.986Z,15.92
2018-07-12T23:20:14.078Z,15.88
2018-07-12T23:22:42.248Z,15.81
2018-07-12T23:25:10.366Z,15.94
2018-07-12T23:27:38.457Z,15.95
2018-07-12T23:30:06.609Z,15.91
2018-07-12T23:32:34.736Z,15.91
2018-07-12T23:35:02.890Z,15.89
2018-07-12T23:37:30.988Z,15.97
2018-07-12T23:39:59.148Z,15.87
2018-07-12T23:42:27.311Z,15.89
2018-07-12T23:44:55.832Z,15.92
2018-07-12T23:47:23.991Z,15.99
2018-07-12T23:49:52.153Z,16.00
2018-07-12T23:52:20.303Z,15.95
2018-07-12T23:54:48.434Z,16.01
2018-07-12T23:57:16.581Z,16.06
2018-07-12T23:59:45.887Z,16.08
